sensor_id;sensor_type;location;lat;lon;timestamp;P1;durP1;ratioP1;P2;durP2;ratioP2
27979;SDS011;15315;50.836;4.430;2022-09-12T00:07:24;11.95;;;6.53;;
27979;SDS011;15315;50.836;4.430;2022-09-12T00:17:25;10.57;;;6.18;;
27979;SDS011;15315;50.836;4.430;2022-09-12T00:27:25;8.23;;;6.60;;
27979;SDS011;15315;50.836;4.430;2022-09-12T00:37:26;11.93;;;6.60;;
27979;SDS011;15315;50.836;4.430;2022-09-12T00:47:26;7.07;;;5.90;;
27979;SDS011;15315;50.836;4.430;2022-09-12T00:57:29;13.93;;;5.95;;
27979;SDS011;15315;50.836;4.430;2022-09-12T01:07:32;11.93;;;6.03;;
27979;SDS011;15315;50.836;4.430;2022-09-12T01:38:03;12.52;;;6.05;;
27979;SDS011;15315;50.836;4.430;2022-09-12T01:48:14;7.90;;;6.45;;
27979;SDS011;15315;50.836;4.430;2022-09-12T01:58:20;13.73;;;6.85;;
27979;SDS011;15315;50.836;4.430;2022-09-12T02:08:23;16.08;;;7.72;;
27979;SDS011;15315;50.836;4.430;2022-09-12T02:18:25;8.67;;;6.70;;
27979;SDS011;15315;50.836;4.430;2022-09-12T02:28:28;8.70;;;6.88;;
27979;SDS011;15315;50.836;4.430;2022-09-12T02:38:42;11.60;;;7.25;;
27979;SDS011;15315;50.836;4.430;2022-09-12T02:48:44;12.50;;;7.27;;
27979;SDS011;15315;50.836;4.430;2022-09-12T02:58:44;10.63;;;7.13;;
27979;SDS011;15315;50.836;4.430;2022-09-12T03:08:50;8.57;;;7.28;;
27979;SDS011;15315;50.836;4.430;2022-09-12T03:29:12;13.77;;;8.38;;
27979;SDS011;15315;50.836;4.430;2022-09-12T03:39:12;14.93;;;8.48;;
27979;SDS011;15315;50.836;4.430;2022-09-12T03:49:13;13.05;;;8.55;;
27979;SDS011;15315;50.836;4.430;2022-09-12T03:59:13;16.05;;;8.93;;
27979;SDS011;15315;50.836;4.430;2022-09-12T04:09:13;14.07;;;8.05;;
27979;SDS011;15315;50.836;4.430;2022-09-12T04:19:14;17.25;;;8.63;;
27979;SDS011;15315;50.836;4.430;2022-09-12T04:29:14;17.35;;;10.07;;
27979;SDS011;15315;50.836;4.430;2022-09-12T04:39:15;18.90;;;13.07;;
27979;SDS011;15315;50.836;4.430;2022-09-12T04:49:16;26.52;;;15.70;;
27979;SDS011;15315;50.836;4.430;2022-09-12T04:59:18;18.63;;;13.57;;
27979;SDS011;15315;50.836;4.430;2022-09-12T05:09:19;27.75;;;14.18;;
27979;SDS011;15315;50.836;4.430;2022-09-12T05:19:19;26.38;;;13.55;;
27979;SDS011;15315;50.836;4.430;2022-09-12T05:29:19;26.15;;;15.13;;
27979;SDS011;15315;50.836;4.430;2022-09-12T05:39:20;22.92;;;14.82;;
27979;SDS011;15315;50.836;4.430;2022-09-12T05:49:20;23.67;;;14.68;;
27979;SDS011;15315;50.836;4.430;2022-09-12T05:59:20;22.20;;;14.68;;
27979;SDS011;15315;50.836;4.430;2022-09-12T06:09:21;27.48;;;14.15;;
27979;SDS011;15315;50.836;4.430;2022-09-12T06:19:24;24.42;;;14.50;;
27979;SDS011;15315;50.836;4.430;2022-09-12T06:29:26;22.00;;;13.98;;
27979;SDS011;15315;50.836;4.430;2022-09-12T06:39:27;19.15;;;12.25;;
27979;SDS011;15315;50.836;4.430;2022-09-12T06:49:27;16.92;;;11.82;;
27979;SDS011;15315;50.836;4.430;2022-09-12T06:59:27;13.02;;;9.68;;
27979;SDS011;15315;50.836;4.430;2022-09-12T07:09:28;13.82;;;9.43;;
27979;SDS011;15315;50.836;4.430;2022-09-12T07:19:29;11.77;;;9.10;;
27979;SDS011;15315;50.836;4.430;2022-09-12T07:29:30;10.40;;;7.22;;
27979;SDS011;15315;50.836;4.430;2022-09-12T07:39:30;9.25;;;7.03;;
27979;SDS011;15315;50.836;4.430;2022-09-12T07:49:31;9.50;;;6.80;;
27979;SDS011;15315;50.836;4.430;2022-09-12T07:59:31;11.93;;;5.72;;
27979;SDS011;15315;50.836;4.430;2022-09-12T08:09:31;14.00;;;5.57;;
27979;SDS011;15315;50.836;4.430;2022-09-12T08:19:32;9.30;;;4.57;;
27979;SDS011;15315;50.836;4.430;2022-09-12T08:29:32;8.43;;;4.30;;
27979;SDS011;15315;50.836;4.430;2022-09-12T08:39:32;7.60;;;4.20;;
27979;SDS011;15315;50.836;4.430;2022-09-12T08:49:35;6.75;;;4.25;;
27979;SDS011;15315;50.836;4.430;2022-09-12T08:59:37;8.80;;;4.97;;
27979;SDS011;15315;50.836;4.430;2022-09-12T09:10:00;8.98;;;4.47;;
27979;SDS011;15315;50.836;4.430;2022-09-12T09:20:09;9.20;;;4.63;;
27979;SDS011;15315;50.836;4.430;2022-09-12T09:30:15;7.40;;;4.35;;
27979;SDS011;15315;50.836;4.430;2022-09-12T09:40:31;11.40;;;3.75;;
27979;SDS011;15315;50.836;4.430;2022-09-12T09:50:33;11.05;;;5.38;;
27979;SDS011;15315;50.836;4.430;2022-09-12T10:00:35;6.77;;;3.20;;
27979;SDS011;15315;50.836;4.430;2022-09-12T10:10:35;5.38;;;2.22;;
27979;SDS011;15315;50.836;4.430;2022-09-12T10:20:42;5.50;;;2.13;;
27979;SDS011;15315;50.836;4.430;2022-09-12T10:30:49;4.55;;;2.80;;
27979;SDS011;15315;50.836;4.430;2022-09-12T10:40:57;5.10;;;2.88;;
27979;SDS011;15315;50.836;4.430;2022-09-12T10:50:58;9.43;;;1.98;;
27979;SDS011;15315;50.836;4.430;2022-09-12T11:41:41;7.65;;;2.22;;
27979;SDS011;15315;50.836;4.430;2022-09-12T11:52:02;4.78;;;2.42;;
27979;SDS011;15315;50.836;4.430;2022-09-12T12:02:09;5.70;;;2.50;;
27979;SDS011;15315;50.836;4.430;2022-09-12T12:12:11;7.25;;;2.78;;
27979;SDS011;15315;50.836;4.430;2022-09-12T12:22:19;4.63;;;1.80;;
27979;SDS011;15315;50.836;4.430;2022-09-12T12:32:21;5.97;;;1.70;;
27979;SDS011;15315;50.836;4.430;2022-09-12T12:52:32;4.18;;;1.65;;
27979;SDS011;15315;50.836;4.430;2022-09-12T13:02:48;2.42;;;1.73;;
27979;SDS011;15315;50.836;4.430;2022-09-12T13:12:49;5.28;;;2.20;;
27979;SDS011;15315;50.836;4.430;2022-09-12T13:22:50;3.47;;;2.13;;
27979;SDS011;15315;50.836;4.430;2022-09-12T13:32:51;2.80;;;1.80;;
27979;SDS011;15315;50.836;4.430;2022-09-12T13:42:52;8.43;;;2.13;;
27979;SDS011;15315;50.836;4.430;2022-09-12T13:53:05;7.03;;;1.67;;
27979;SDS011;15315;50.836;4.430;2022-09-12T14:03:39;2.58;;;1.92;;
27979;SDS011;15315;50.836;4.430;2022-09-12T14:13:51;4.30;;;2.20;;
27979;SDS011;15315;50.836;4.430;2022-09-12T14:23:51;3.50;;;2.00;;
27979;SDS011;15315;50.836;4.430;2022-09-12T14:34:15;6.50;;;2.03;;
27979;SDS011;15315;50.836;4.430;2022-09-12T14:44:18;2.53;;;1.70;;
27979;SDS011;15315;50.836;4.430;2022-09-12T15:04:42;4.00;;;1.42;;
27979;SDS011;15315;50.836;4.430;2022-09-12T15:14:42;2.42;;;1.38;;
27979;SDS011;15315;50.836;4.430;2022-09-12T15:24:43;3.60;;;1.63;;
27979;SDS011;15315;50.836;4.430;2022-09-12T15:34:43;3.63;;;1.80;;
27979;SDS011;15315;50.836;4.430;2022-09-12T15:44:43;5.22;;;1.73;;
27979;SDS011;15315;50.836;4.430;2022-09-12T15:54:43;5.03;;;1.52;;
27979;SDS011;15315;50.836;4.430;2022-09-12T16:04:44;2.63;;;1.42;;
27979;SDS011;15315;50.836;4.430;2022-09-12T16:14:45;7.85;;;1.67;;
27979;SDS011;15315;50.836;4.430;2022-09-12T16:24:45;4.13;;;1.92;;
27979;SDS011;15315;50.836;4.430;2022-09-12T16:34:45;19.55;;;10.98;;
27979;SDS011;15315;50.836;4.430;2022-09-12T16:44:46;8.65;;;5.55;;
27979;SDS011;15315;50.836;4.430;2022-09-12T16:54:46;6.03;;;2.65;;
27979;SDS011;15315;50.836;4.430;2022-09-12T17:04:46;6.03;;;2.40;;
27979;SDS011;15315;50.836;4.430;2022-09-12T17:14:47;4.32;;;3.10;;
27979;SDS011;15315;50.836;4.430;2022-09-12T17:24:48;18.45;;;9.30;;
27979;SDS011;15315;50.836;4.430;2022-09-12T17:34:48;14.38;;;7.32;;
27979;SDS011;15315;50.836;4.430;2022-09-12T17:44:48;11.77;;;3.50;;
27979;SDS011;15315;50.836;4.430;2022-09-12T17:54:49;9.55;;;4.50;;
27979;SDS011;15315;50.836;4.430;2022-09-12T18:04:49;8.80;;;3.78;;
27979;SDS011;15315;50.836;4.430;2022-09-12T18:14:49;8.15;;;2.78;;
27979;SDS011;15315;50.836;4.430;2022-09-12T18:24:50;7.55;;;3.13;;
27979;SDS011;15315;50.836;4.430;2022-09-12T18:34:50;15.40;;;5.07;;
27979;SDS011;15315;50.836;4.430;2022-09-12T18:44:51;8.10;;;3.70;;
27979;SDS011;15315;50.836;4.430;2022-09-12T18:54:51;14.98;;;3.83;;
27979;SDS011;15315;50.836;4.430;2022-09-12T19:04:52;7.25;;;4.30;;
27979;SDS011;15315;50.836;4.430;2022-09-12T19:14:52;7.18;;;3.00;;
27979;SDS011;15315;50.836;4.430;2022-09-12T19:24:52;11.10;;;4.28;;
27979;SDS011;15315;50.836;4.430;2022-09-12T19:34:52;9.38;;;3.10;;
27979;SDS011;15315;50.836;4.430;2022-09-12T19:44:53;7.40;;;3.20;;
27979;SDS011;15315;50.836;4.430;2022-09-12T19:54:54;5.18;;;3.30;;
27979;SDS011;15315;50.836;4.430;2022-09-12T20:04:55;10.85;;;4.50;;
27979;SDS011;15315;50.836;4.430;2022-09-12T20:14:55;14.95;;;4.00;;
27979;SDS011;15315;50.836;4.430;2022-09-12T20:24:55;8.40;;;3.60;;
27979;SDS011;15315;50.836;4.430;2022-09-12T20:34:56;5.03;;;3.45;;
27979;SDS011;15315;50.836;4.430;2022-09-12T20:44:56;5.93;;;3.25;;
27979;SDS011;15315;50.836;4.430;2022-09-12T20:54:56;10.98;;;3.60;;
27979;SDS011;15315;50.836;4.430;2022-09-12T21:04:57;8.02;;;3.00;;
27979;SDS011;15315;50.836;4.430;2022-09-12T21:14:57;9.10;;;3.55;;
27979;SDS011;15315;50.836;4.430;2022-09-12T21:24:57;8.18;;;3.80;;
27979;SDS011;15315;50.836;4.430;2022-09-12T21:34:57;9.15;;;3.25;;
27979;SDS011;15315;50.836;4.430;2022-09-12T21:44:58;5.10;;;3.08;;
27979;SDS011;15315;50.836;4.430;2022-09-12T21:54:58;4.15;;;2.47;;
27979;SDS011;15315;50.836;4.430;2022-09-12T22:04:58;11.48;;;3.67;;
27979;SDS011;15315;50.836;4.430;2022-09-12T22:14:58;8.43;;;3.05;;
27979;SDS011;15315;50.836;4.430;2022-09-12T22:24:59;4.72;;;2.90;;
27979;SDS011;15315;50.836;4.430;2022-09-12T22:34:59;8.90;;;5.03;;
27979;SDS011;15315;50.836;4.430;2022-09-12T22:44:59;6.50;;;2.58;;
27979;SDS011;15315;50.836;4.430;2022-09-12T22:55:00;7.82;;;2.63;;
27979;SDS011;15315;50.836;4.430;2022-09-12T23:05:00;5.82;;;2.80;;
27979;SDS011;15315;50.836;4.430;2022-09-12T23:15:01;10.30;;;2.92;;
27979;SDS011;15315;50.836;4.430;2022-09-12T23:25:02;4.03;;;2.55;;
27979;SDS011;15315;50.836;4.430;2022-09-12T23:35:02;9.43;;;2.70;;
27979;SDS011;15315;50.836;4.430;2022-09-12T23:45:03;5.05;;;2.85;;
27979;SDS011;15315;50.836;4.430;2022-09-12T23:55:03;8.32;;;2.63;;
